KD9JOU-13 Weather Reports


time (UTC)temp
F
wind
direction
speed
knots
gust
knots
rain 1hr
in
rain 24hr
in
rain mn
in
humidity
%
barometer
mb
20260905224331 100 221 0.0 1.7 0.00 0.00 0.00 41 1011.3
20260905223831 100 220 0.9 1.7 0.00 0.00 0.00 40 1011.2
20260905223331 100 221 0.9 2.6 0.00 0.00 0.00 40 1011.2
20260905222831 99 324 1.7 2.6 0.00 0.00 0.00 41 1011.3
20260905222331 99 305 1.7 1.7 0.00 0.00 0.00 41 1011.3
20260905221831 100 237 0.9 1.7 0.00 0.00 0.00 41 1011.3
20260905221331 100 318 1.7 2.6 0.00 0.00 0.00 40 1011.2
20260905220831 100 270 1.7 2.6 0.00 0.00 0.00 41 1011.1
20260905220331 99 250 0.9 1.7 0.00 0.00 0.00 40 1011.1
20260905215831 99 327 0.9 1.7 0.00 0.00 0.00 41 1011.2
20260905215331 99 328 1.7 1.7 0.00 0.00 0.00 41 1011.2
20260905214831 99 288 1.7 2.6 0.00 0.00 0.00 41 1011.3
20260905214331 99 349 1.7 2.6 0.00 0.00 0.00 42 1011.3
20260905213831 99 341 1.7 4.3 0.00 0.00 0.00 41 1011.3
20260905213331 99 109 0.9 1.7 0.00 0.00 0.00 43 1011.2
20260905212831 98 231 1.7 1.7 0.00 0.00 0.00 43 1011.3
20260905212331 98 312 0.9 1.7 0.00 0.00 0.00 43 1011.3
20260905211831 98 265 0.9 1.7 0.00 0.00 0.00 43 1011.4
20260905211331 98 324 0.9 1.7 0.00 0.00 0.00 44 1011.5
20260905210831 98 213 0.0 1.7 0.00 0.00 0.00 44 1011.5
20260905210331 98 203 0.0 0.0 0.00 0.00 0.00 45 1011.6
20260905205831 98 304 0.0 1.7 0.00 0.00 0.00 45 1011.6
20260905205331 98 217 0.0 1.7 0.00 0.00 0.00 44 1011.6
20260905204831 99 353 0.0 1.7 0.00 0.00 0.00 43 1011.7
20260905204331 99 351 0.9 2.6 0.00 0.00 0.00 43 1011.7
20260905203831 99 340 1.7 2.6 0.00 0.00 0.00 42 1011.7
20260905203330 99 346 1.7 2.6 0.00 0.00 0.00 41 1011.8
20260905202831 100 340 2.6 3.5 0.00 0.00 0.00 41 1011.8
20260905202331 99 335 1.7 3.5 0.00 0.00 0.00 42 1011.8
20260905201831 99 217 1.7 2.6 0.00 0.00 0.00 42 1011.8
20260905201331 99 332 1.7 3.5 0.00 0.00 0.00 41 1011.9
20260905200831 98 321 1.7 2.6 0.00 0.00 0.00 42 1011.9
20260905200331 98 192 0.9 1.7 0.00 0.00 0.00 43 1012.0
20260905195832 98 290 0.0 0.9 0.00 0.00 0.00 43 1012.1
20260905195331 98 186 0.0 0.9 0.00 0.00 0.00 45 1012.1
20260905194831 98 353 0.9 1.7 0.00 0.00 0.00 44 1012.3
20260905194331 98 261 0.0 1.7 0.00 0.00 0.00 45 1012.3
20260905193831 98 348 1.7 2.6 0.00 0.00 0.00 43 1012.4
20260905193330 98 351 1.7 2.6 0.00 0.00 0.00 43 1012.4
20260905192831 98 353 1.7 2.6 0.00 0.00 0.00 43 1012.5
20260905192331 98 353 1.7 2.6 0.00 0.00 0.00 45 1012.5
20260905191831 98 211 0.9 1.7 0.00 0.00 0.00 43 1012.5
20260905191331 98 360 0.0 0.0 0.00 0.00 0.00 43 1012.6
20260905190831 98 244 0.9 1.7 0.00 0.00 0.00 43 1012.6
20260905190331 98 326 1.7 2.6 0.00 0.00 0.00 43 1012.7
20260905185832 98 342 1.7 1.7 0.00 0.00 0.00 43 1012.7
20260905185331 98 140 0.0 1.7 0.00 0.00 0.00 45 1012.7
20260905184830 98 276 0.0 1.7 0.00 0.00 0.00 44 1012.8
20260905184331 98 219 0.9 0.9 0.00 0.00 0.00 44 1012.9
20260905183831 98 334 1.7 2.6 0.00 0.00 0.00 45 1012.9
20260905183331 98 251 0.9 2.6 0.00 0.00 0.00 44 1012.9
20260905182830 98 179 0.9 1.7 0.00 0.00 0.00 44 1013.0
20260905182331 98 349 1.7 2.6 0.00 0.00 0.00 45 1013.0
20260905181831 98 173 1.7 2.6 0.00 0.00 0.00 45 1013.0
20260905181332 98 238 0.9 1.7 0.00 0.00 0.00 45 1013.0
20260905180831 98 343 1.7 3.5 0.00 0.00 0.00 44 1013.1
20260905180331 98 172 1.7 2.6 0.00 0.00 0.00 44 1013.2
20260905175831 98 338 1.7 2.6 0.00 0.00 0.00 43 1013.2
20260905175331 98 328 0.9 1.7 0.00 0.00 0.00 44 1013.3
20260905174831 97 231 0.0 1.7 0.00 0.00 0.00 45 1013.4
20260905174330 97 246 0.9 1.7 0.00 0.00 0.00 45 1013.4
20260905173831 97 291 0.9 1.7 0.00 0.00 0.00 44 1013.3
20260905173331 97 219 0.9 1.7 0.00 0.00 0.00 45 1013.4
20260905172831 97 337 1.7 2.6 0.00 0.00 0.00 45 1013.4
20260905172331 97 233 1.7 2.6 0.00 0.00 0.00 45 1013.4
20260905171831 97 354 1.7 2.6 0.00 0.00 0.00 46 1013.5
20260905171332 97 335 1.7 1.7 0.00 0.00 0.00 46 1013.7
20260905170831 97 243 0.0 1.7 0.00 0.00 0.00 45 1013.8
20260905170331 98 183 0.9 1.7 0.00 0.00 0.00 45 1013.8
20260905165832 97 333 1.7 3.5 0.00 0.00 0.00 45 1014.1
20260905165331 97 342 1.7 2.6 0.00 0.00 0.00 47 1013.9
20260905164831 97 325 2.6 3.5 0.00 0.00 0.00 47 1013.9
20260905164331 97 298 1.7 2.6 0.00 0.00 0.00 47 1014.1
20260905163831 96 152 1.7 1.7 0.00 0.00 0.00 48 1014.1
20260905163330 96 243 1.7 2.6 0.00 0.00 0.00 48 1014.1
20260905162831 96 325 1.7 3.5 0.00 0.00 0.00 48 1014.1
20260905162331 96 277 0.9 1.7 0.00 0.00 0.00 48 1014.2
20260905161831 96 233 0.9 1.7 0.00 0.00 0.00 48 1014.2
20260905161331 96 234 1.7 2.6 0.00 0.00 0.00 48 1014.2
20260905160831 96 333 2.6 5.2 0.00 0.00 0.00 48 1014.3
20260905160331 96 339 1.7 2.6 0.00 0.00 0.00 49 1014.3
20260905155831 96 188 0.9 1.7 0.00 0.00 0.00 51 1014.3
20260905155331 96 246 0.9 1.7 0.00 0.00 0.00 51 1014.3
20260905154831 95 211 0.9 2.6 0.00 0.00 0.00 53 1014.3
20260905154331 95 223 0.9 1.7 0.00 0.00 0.00 53 1014.3
20260905153831 95 247 1.7 2.6 0.00 0.00 0.00 53 1014.3
20260905153331 95 284 1.7 2.6 0.00 0.00 0.00 52 1014.4
20260905152832 95 192 1.7 2.6 0.00 0.00 0.00 52 1014.4
20260905152331 95 255 0.0 0.9 0.00 0.00 0.00 52 1014.4
20260905151831 95 225 0.0 1.7 0.00 0.00 0.00 52 1014.4
20260905151331 95 193 0.0 1.7 0.00 0.00 0.00 52 1014.4
20260905150831 95 333 1.7 2.6 0.00 0.00 0.00 53 1014.4
20260905150331 94 305 0.9 1.7 0.00 0.00 0.00 55 1014.4
20260905145831 94 187 0.0 1.7 0.00 0.00 0.00 55 1014.4
20260905145331 93 314 0.0 0.0 0.00 0.00 0.00 55 1014.5
20260905144831 93 360 0.0 0.0 0.00 0.00 0.00 56 1014.6
20260905144331 92 360 0.0 0.0 0.00 0.00 0.00 58 1014.6
20260905143831 91 360 0.0 0.0 0.00 0.00 0.00 61 1014.7
20260905143331 90 360 0.0 0.0 0.00 0.00 0.00 63 1014.8
20260905142831 89 360 0.0 0.0 0.00 0.00 0.00 66 1014.8
20260905142331 88 360 0.0 0.0 0.00 0.00 0.00 69 1014.8
20260905141831 87 360 0.0 0.0 0.00 0.00 0.00 74 1014.9
20260905141331 86 360 0.0 0.0 0.00 0.00 0.00 75 1015.0
20260905140831 85 360 0.0 0.0 0.00 0.00 0.00 76 1015.0
20260905140331 85 360 0.0 0.0 0.00 0.00 0.00 77 1015.0
20260905135831 84 360 0.0 0.0 0.00 0.00 0.00 78 1015.0
20260905135331 84 360 0.0 0.0 0.00 0.00 0.00 79 1015.1
20260905134830 83 360 0.0 0.0 0.00 0.00 0.00 79 1015.1
20260905134331 82 360 0.0 0.0 0.00 0.00 0.00 81 1015.1
20260905133831 81 360 0.0 0.0 0.00 0.00 0.00 82 1015.2
20260905133331 81 360 0.0 0.0 0.00 0.00 0.00 83 1015.1
20260905132831 80 360 0.0 0.0 0.00 0.00 0.00 87 1015.2
20260905132331 80 360 0.0 0.0 0.00 0.00 0.00 88 1015.2
20260905131830 80 360 0.0 0.0 0.00 0.00 0.00 88 1015.2
20260905131331 79 360 0.0 0.0 0.00 0.00 0.00 89 1015.2
20260905130831 79 360 0.0 0.0 0.00 0.00 0.00 90 1015.2
20260905130331 78 360 0.0 0.0 0.00 0.00 0.00 90 1015.2
20260905125831 78 360 0.0 0.0 0.00 0.00 0.00 91 1015.3
20260905125331 77 360 0.0 0.0 0.00 0.00 0.00 92 1015.3
20260905124831 77 360 0.0 0.0 0.00 0.00 0.00 92 1015.3
20260905124331 76 360 0.0 0.0 0.00 0.00 0.00 93 1015.3
20260905123831 76 360 0.0 0.0 0.00 0.00 0.00 93 1015.2
20260905123331 76 360 0.0 0.0 0.00 0.00 0.00 94 1015.2
20260905122831 76 360 0.0 0.0 0.00 0.00 0.00 94 1015.1
20260905122331 75 360 0.0 0.0 0.00 0.00 0.00 94 1015.2
20260905121831 75 360 0.0 0.0 0.00 0.00 0.00 94 1015.1
20260905121330 75 360 0.0 0.0 0.00 0.00 0.00 95 1015.1
20260905120831 75 360 0.0 0.0 0.00 0.00 0.00 95 1015.0
20260905120331 75 360 0.0 0.0 0.00 0.00 0.00 95 1015.0
20260905115831 75 360 0.0 0.0 0.00 0.00 0.00 95 1014.9
20260905115331 75 360 0.0 0.0 0.00 0.00 0.00 95 1014.9
20260905114831 75 360 0.0 0.0 0.00 0.00 0.00 95 1014.9
20260905114331 75 360 0.0 0.0 0.00 0.00 0.00 95 1014.8
20260905113831 75 360 0.0 0.0 0.00 0.00 0.00 95 1014.8
20260905113331 75 360 0.0 0.0 0.00 0.00 0.00 95 1014.8
20260905112831 75 360 0.0 0.0 0.00 0.00 0.00 95 1014.8
20260905112330 75 360 0.0 0.0 0.00 0.00 0.00 95 1014.7
20260905111830 75 360 0.0 0.0 0.00 0.00 0.00 95 1014.7
20260905111331 75 360 0.0 0.0 0.00 0.00 0.00 94 1014.6
20260905110831 75 360 0.0 0.0 0.00 0.00 0.00 94 1014.5
20260905110331 75 360 0.0 0.0 0.00 0.00 0.00 94 1014.4
20260905105831 75 360 0.0 0.0 0.00 0.00 0.00 94 1014.4
20260905105331 75 360 0.0 0.0 0.00 0.00 0.00 94 1014.4
20260905104831 75 360 0.0 0.0 0.00 0.00 0.00 93 1014.4
20260905104330 75 360 0.0 0.0 0.00 0.00 0.00 93 1014.4
20260905103831 75 360 0.0 0.0 0.00 0.00 0.00 93 1014.4
20260905103331 75 360 0.0 0.0 0.00 0.00 0.00 93 1014.4
20260905102831 75 360 0.0 0.0 0.00 0.00 0.00 93 1014.5
20260905102331 75 360 0.0 0.0 0.00 0.00 0.00 93 1014.4
20260905101831 75 360 0.0 0.0 0.00 0.00 0.00 93 1014.3
20260905101331 75 360 0.0 0.0 0.00 0.00 0.00 93 1014.3
20260905100831 75 360 0.0 0.0 0.00 0.00 0.00 93 1014.3
20260905100330 75 360 0.0 0.0 0.00 0.00 0.00 92 1014.3
20260905095831 75 360 0.0 0.0 0.00 0.00 0.00 92 1014.3
20260905095331 75 360 0.0 0.0 0.00 0.00 0.00 92 1014.2
20260905094831 75 360 0.0 0.0 0.00 0.00 0.00 92 1014.3
20260905094331 76 360 0.0 0.0 0.00 0.00 0.00 92 1014.2
20260905093831 76 360 0.0 0.0 0.00 0.00 0.00 92 1014.2
20260905093330 76 360 0.0 0.0 0.00 0.00 0.00 92 1014.2
20260905092831 76 360 0.0 0.0 0.00 0.00 0.00 91 1014.2
20260905092331 76 360 0.0 0.0 0.00 0.00 0.00 91 1014.1
20260905091831 76 360 0.0 0.0 0.00 0.00 0.00 91 1014.1
20260905091331 76 360 0.0 0.0 0.00 0.00 0.00 91 1014.1
20260905090831 76 360 0.0 0.0 0.00 0.00 0.00 91 1013.9
20260905090331 76 360 0.0 0.0 0.00 0.00 0.00 91 1014.1
20260905085831 76 360 0.0 0.0 0.00 0.00 0.00 91 1014.1
20260905085330 76 360 0.0 0.0 0.00 0.00 0.00 91 1014.1
20260905084831 76 360 0.0 0.0 0.00 0.00 0.00 90 1014.1
20260905084331 76 360 0.0 0.0 0.00 0.00 0.00 90 1014.1
20260905083832 76 360 0.0 0.0 0.00 0.00 0.00 90 1014.2
20260905083331 76 360 0.0 0.0 0.00 0.00 0.00 90 1014.2
20260905082832 77 360 0.0 0.0 0.00 0.00 0.00 90 1014.1
20260905082331 77 360 0.0 0.0 0.00 0.00 0.00 90 1014.1
20260905081831 77 360 0.0 0.0 0.00 0.00 0.00 90 1014.1
20260905081331 77 360 0.0 0.0 0.00 0.00 0.00 89 1014.2
20260905080831 77 360 0.0 0.0 0.00 0.00 0.00 89 1014.2
20260905080331 77 360 0.0 0.0 0.00 0.00 0.00 89 1014.2
20260905075831 77 360 0.0 0.0 0.00 0.00 0.00 89 1014.3
20260905075331 77 360 0.0 0.0 0.00 0.00 0.00 89 1014.3
20260905074831 77 360 0.0 0.0 0.00 0.00 0.00 89 1014.3
20260905074331 77 360 0.0 0.0 0.00 0.00 0.00 89 1014.3
20260905073830 77 360 0.0 0.0 0.00 0.00 0.00 89 1014.3
20260905073331 77 360 0.0 0.0 0.00 0.00 0.00 89 1014.3
20260905072832 77 360 0.0 0.0 0.00 0.00 0.00 89 1014.3
20260905072330 77 360 0.0 0.0 0.00 0.00 0.00 89 1014.2
20260905071831 77 360 0.0 0.0 0.00 0.00 0.00 89 1014.3
20260905071331 77 360 0.0 0.0 0.00 0.00 0.00 89 1014.3
20260905070831 78 360 0.0 0.0 0.00 0.00 0.00 89 1014.3
20260905070331 78 360 0.0 0.0 0.00 0.00 0.00 88 1014.3
20260905065831 78 360 0.0 0.0 0.00 0.00 0.00 88 1014.3
20260905065331 78 360 0.0 0.0 0.00 0.00 0.00 87 1014.3
20260905064831 78 360 0.0 0.0 0.00 0.00 0.00 87 1014.3
20260905064331 78 360 0.0 0.0 0.00 0.00 0.00 87 1014.2
20260905063837 78 360 0.0 0.0 0.00 0.00 0.00 86 1014.3
20260905063331 78 360 0.0 0.0 0.00 0.00 0.00 86 1014.3
20260905062831 78 360 0.0 0.0 0.00 0.00 0.00 86 1014.4
20260905062331 78 360 0.0 0.0 0.00 0.00 0.00 86 1014.5
20260905061832 79 360 0.0 0.0 0.00 0.00 0.00 86 1014.5
20260905061331 79 360 0.0 0.0 0.00 0.00 0.00 86 1014.5
20260905060831 79 360 0.0 0.0 0.00 0.00 0.00 85 1014.5
20260905060331 79 360 0.0 0.0 0.00 0.00 0.00 85 1014.5
20260905055831 79 360 0.0 0.0 0.00 0.00 0.00 85 1014.5
20260905055331 79 360 0.0 0.0 0.00 0.00 0.00 84 1014.5
20260905054831 79 360 0.0 0.0 0.00 0.00 0.00 84 1014.5
20260905054331 79 360 0.0 0.0 0.00 0.00 0.00 85 1014.5
20260905053831 79 360 0.0 0.0 0.00 0.00 0.00 84 1014.6
20260905053331 79 360 0.0 0.0 0.00 0.00 0.00 84 1014.6
20260905052831 80 360 0.0 0.0 0.00 0.00 0.00 84 1014.6
20260905052331 80 360 0.0 0.0 0.00 0.00 0.00 83 1014.6
20260905051831 80 360 0.0 0.0 0.00 0.00 0.00 83 1014.6
20260905051331 80 360 0.0 0.0 0.00 0.00 0.00 83 1014.6
20260905050830 80 360 0.0 0.0 0.00 0.00 0.00 83 1014.6
20260905050331 80 360 0.0 0.0 0.00 0.00 0.00 83 1014.6
20260905045831 80 360 0.0 0.0 0.00 0.00 0.00 82 1014.6
20260905045331 80 360 0.0 0.0 0.00 0.00 0.00 82 1014.6
20260905044831 80 360 0.0 0.0 0.00 0.00 0.00 81 1014.6
20260905044331 81 360 0.0 0.0 0.00 0.00 0.00 81 1014.5
20260905043831 81 360 0.0 0.0 0.00 0.00 0.00 80 1014.5
20260905043330 81 360 0.0 0.0 0.00 0.00 0.00 80 1014.6
20260905042831 81 360 0.0 0.0 0.00 0.00 0.00 80 1014.5
20260905042331 81 360 0.0 0.0 0.00 0.00 0.00 80 1014.6
20260905041831 81 360 0.0 0.0 0.00 0.00 0.00 79 1014.6
20260905041331 82 360 0.0 0.0 0.00 0.00 0.00 79 1014.6
20260905040831 82 360 0.0 0.0 0.00 0.00 0.00 78 1014.6
20260905040330 82 360 0.0 0.0 0.00 0.00 0.00 78 1014.6
20260905035831 82 360 0.0 0.0 0.00 0.00 0.00 77 1014.6
20260905035331 82 360 0.0 0.0 0.00 0.00 0.00 77 1014.6
20260905034831 82 360 0.0 0.0 0.00 0.00 0.00 77 1014.6
20260905034331 83 360 0.0 0.0 0.00 0.00 0.00 76 1014.7
20260905033831 83 360 0.0 0.0 0.00 0.00 0.00 76 1014.7
20260905033331 83 360 0.0 0.0 0.00 0.00 0.00 76 1014.7
20260905032831 83 360 0.0 0.0 0.00 0.00 0.00 75 1014.7
20260905032331 83 360 0.0 0.0 0.00 0.00 0.00 76 1014.7
20260905031831 83 360 0.0 0.0 0.00 0.00 0.00 75 1014.5
20260905031331 83 360 0.0 0.0 0.00 0.00 0.00 75 1014.7
20260905030831 83 360 0.0 0.0 0.00 0.00 0.00 76 1014.7
20260905030331 83 360 0.0 0.0 0.00 0.00 0.00 75 1014.7
20260905025831 83 360 0.0 0.0 0.00 0.00 0.00 75 1014.7
20260905025331 83 360 0.0 0.0 0.00 0.00 0.00 75 1014.7
20260905024830 83 360 0.0 0.0 0.00 0.00 0.00 76 1014.7
20260905024331 83 360 0.0 0.0 0.00 0.00 0.00 76 1014.6
20260905023831 84 360 0.0 0.0 0.00 0.00 0.00 75 1014.5
20260905023331 84 360 0.0 0.0 0.00 0.00 0.00 75 1014.4
20260905022832 84 360 0.0 0.0 0.00 0.00 0.00 74 1014.4
20260905022331 84 360 0.0 0.0 0.00 0.00 0.00 74 1014.5
20260905021831 85 360 0.0 0.0 0.00 0.00 0.00 73 1014.5
20260905021331 85 360 0.0 0.0 0.00 0.00 0.00 73 1014.4
20260905020831 85 360 0.0 0.0 0.00 0.00 0.00 73 1014.4
20260905020331 85 360 0.0 0.0 0.00 0.00 0.00 72 1014.4
20260905015831 85 360 0.0 0.0 0.00 0.00 0.00 73 1014.4
20260905015331 85 360 0.0 0.0 0.00 0.00 0.00 72 1014.3
20260905014830 85 151 0.0 0.9 0.00 0.00 0.00 71 1014.3
20260905014331 85 143 0.0 0.9 0.00 0.00 0.00 71 1014.3
20260905013831 86 360 0.0 0.0 0.00 0.00 0.00 71 1014.2
20260905013331 86 150 0.0 0.9 0.00 0.00 0.00 71 1014.1
20260905012831 86 152 0.0 0.9 0.00 0.00 0.00 71 1014.1
20260905012331 86 360 0.0 0.0 0.00 0.00 0.00 70 1014.1
20260905011831 87 360 0.0 0.0 0.00 0.00 0.00 69 1014.1
20260905011332 87 360 0.0 0.0 0.00 0.00 0.00 69 1013.9
20260905010831 87 360 0.0 0.0 0.00 0.00 0.00 69 1013.9
20260905010331 87 136 0.0 0.9 0.00 0.00 0.00 68 1013.8
20260905005830 87 360 0.0 0.0 0.00 0.00 0.00 68 1013.7
20260905005331 88 360 0.0 0.0 0.00 0.00 0.00 67 1013.7
20260905004832 88 360 0.0 0.0 0.00 0.00 0.00 66 1013.6
20260905004331 89 360 0.0 0.0 0.00 0.00 0.00 65 1013.5
20260905003831 89 360 0.0 0.0 0.00 0.00 0.00 64 1013.5
20260905003331 90 360 0.0 0.0 0.00 0.00 0.00 63 1013.5
20260905002831 90 119 0.0 0.9 0.00 0.00 0.00 63 1013.5
20260905002332 91 360 0.0 0.0 0.00 0.00 0.00 62 1013.4
20260905001831 91 360 0.0 0.0 0.00 0.00 0.00 61 1013.4
20260905001331 92 360 0.0 0.0 0.00 0.00 0.00 60 1013.4
20260905000832 92 360 0.0 0.0 0.00 0.00 0.00 60 1013.4
20260905000333 94 360 0.0 0.0 0.00 0.00 0.00 58 1013.4
20260904235831 94 360 0.0 0.0 0.00 0.00 0.00 56 1013.4
20260904235331 95 360 0.0 0.0 0.00 0.00 0.00 55 1013.4
20260904234831 96 360 0.0 0.0 0.00 0.00 0.00 54 1013.4
20260904234331 96 155 0.0 0.9 0.00 0.00 0.00 52 1013.3
20260904233830 96 180 0.0 1.7 0.00 0.00 0.00 51 1013.3
20260904233331 96 195 0.9 1.7 0.00 0.00 0.00 51 1013.3
20260904232831 97 192 0.9 1.7 0.00 0.00 0.00 51 1013.2
20260904232331 97 186 1.7 1.7 0.00 0.00 0.00 50 1013.2
20260904231831 97 360 0.0 0.0 0.00 0.00 0.00 50 1013.2
20260904231331 98 140 0.9 1.7 0.00 0.00 0.00 49 1013.2
20260904230831 98 185 1.7 2.6 0.00 0.00 0.00 48 1013.2
20260904230331 98 138 0.9 1.7 0.00 0.00 0.00 49 1013.1
20260904225831 98 200 2.6 2.6 0.00 0.00 0.00 46 1013.2
20260904225331 98 189 1.7 1.7 0.00 0.00 0.00 45 1013.2
20260904224831 98 192 0.9 1.7 0.00 0.00 0.00 45 1013.2